Selim Kaptan-1 — YM5323 — position and weather

sailwx.info

Track history (hours):
 
Tides and Currents Weather Stations Pressure Air Temp Water Temp Dewpoint Dewpoint Depression Visibility Wind Speed Wind Dir Waves Ship Positions

Selim Kaptan-1

Last reported at 2018-May-10 13:09 UTC. Time now 2018-Jun-24 15:10 UTC.
Position N 36°48' E 030°35'.
Warning: this ship's position is 45 days out of date.

Length 18 m.

Type: Pleasure craft. MMSI: 271041648.

Date/timePositionNaut miles runAvg speedWind from/ knotsBaromVisibWave heightAir tempDewpointWater temp
2018-May-10 13:09N 36°48' E 030°35'0 0.0
2018-May-10 13:00N 36°48' E 030°35'0 0.0
2018-May-10 12:30N 36°48' E 030°35'0 0.0
2018-May-10 12:00N 36°48' E 030°35'0 0.0
2018-May-10 11:30N 36°48' E 030°35'0 0.0
2018-May-10 11:00N 36°48' E 030°35'0 0.0
2018-May-10 10:30N 36°48' E 030°35'0 0.0
2018-May-10 10:00N 36°48' E 030°35'0 0.0
2018-May-10 09:30N 36°48' E 030°35'0 0.0
2018-May-10 09:00N 36°48' E 030°35'0 0.0
2018-May-10 08:30N 36°48' E 030°35'0 0.0
2018-May-10 08:00N 36°48' E 030°35'0 0.0
2018-May-10 07:30N 36°48' E 030°35'0 0.0
2018-May-10 07:00N 36°48' E 030°35'0 0.0
2018-May-10 06:30N 36°48' E 030°35'0 0.0
2018-May-10 06:00N 36°48' E 030°35'0 0.0
2018-May-10 05:30N 36°48' E 030°35'0 0.0
2018-May-10 04:57N 36°48' E 030°35'0 0.0
2018-May-10 04:30N 36°48' E 030°35'0 0.0
2018-May-10 04:00N 36°48' E 030°35'0 0.0
2018-May-10 03:30N 36°48' E 030°35'0 0.0
2018-May-10 03:00N 36°48' E 030°35'0 0.0
2018-May-10 02:30N 36°48' E 030°35'0 0.0
2018-May-10 02:00N 36°48' E 030°35'0 0.0
2018-May-10 01:30N 36°48' E 030°35'0 0.0
2018-May-10 01:00N 36°48' E 030°35'0 0.0
2018-May-10 00:30N 36°48' E 030°35'0 0.0
2018-May-10 00:00N 36°48' E 030°35'0 0.0
2018-May-09 23:30N 36°48' E 030°35'0 0.0
2018-May-09 23:00N 36°48' E 030°35'0 0.0
2018-May-09 22:30N 36°48' E 030°35'0 0.0
2018-May-09 22:00N 36°48' E 030°35'0 0.0
2018-May-09 21:30N 36°48' E 030°35'0 0.0
2018-May-09 21:00N 36°48' E 030°35'0 0.0
2018-May-09 20:30N 36°48' E 030°35'0 0.0
2018-May-09 16:45N 36°48' E 030°35'0 0.0
2018-May-09 16:30N 36°48' E 030°35'0 0.0
2018-May-09 16:00N 36°48' E 030°35'0 0.0
2018-May-09 15:30N 36°48' E 030°35'0 0.0
2018-May-09 15:00N 36°48' E 030°35'0 0.0
2018-May-09 14:30N 36°48' E 030°35'0 0.0
2018-May-09 14:00N 36°48' E 030°35'0 0.0
2018-May-09 13:30N 36°48' E 030°35'0 0.0
2018-May-09 13:00N 36°48' E 030°35'0 0.0
2018-May-09 12:30N 36°48' E 030°35'0 0.0
2018-May-09 12:00N 36°48' E 030°35'0 0.0
2018-May-09 11:30N 36°48' E 030°35'0 0.0
2018-May-09 11:00N 36°48' E 030°35'0 0.0
2018-May-09 10:30N 36°48' E 030°35'0 0.0
2018-May-09 10:00N 36°48' E 030°35'0 0.0
2018-May-09 09:30N 36°48' E 030°35'0 0.0
2018-May-09 09:00N 36°48' E 030°35'0 0.0
2018-May-09 08:30N 36°48' E 030°35'0 0.0
2018-May-09 08:00N 36°48' E 030°35'0 0.0
2018-May-09 07:30N 36°48' E 030°35'0 0.0
2018-May-09 07:00N 36°48' E 030°35'  
2018-May-02 17:18N 36°48' E 030°35'0 0.0
2018-May-02 16:57N 36°48' E 030°35'0 0.0
2018-May-02 16:27N 36°48' E 030°35'0 0.9
2018-May-02 16:01N 36°48' E 030°35'2 3.2
2018-May-02 15:28N 36°50' E 030°36'0 0.0
2018-May-02 14:58N 36°50' E 030°36'1 2.6
2018-May-02 14:31N 36°49' E 030°36'1 1.8
2018-May-02 13:59N 36°48' E 030°35'0 0.0
2018-May-02 13:29N 36°48' E 030°35'0 0.0
2018-May-02 12:56N 36°48' E 030°35'0 0.0
2018-May-02 12:29N 36°48' E 030°35'0 0.0
2018-May-02 11:59N 36°48' E 030°35'0 0.0
2018-May-02 11:29N 36°48' E 030°35'0 0.0
2018-May-02 10:59N 36°48' E 030°35'0 0.0
2018-May-02 10:29N 36°48' E 030°35'1 2.6
2018-May-02 10:00N 36°49' E 030°37'4 7.7
2018-May-02 09:30N 36°50' E 030°41'4 7.6
2018-May-02 08:59N 36°51' E 030°46'0 0.4
2018-May-02 08:09N 36°51' E 030°46'1 8.0
2018-May-02 07:59N 36°51' E 030°45'4 7.8
2018-May-02 07:30N 36°51' E 030°40'3 5.8
2018-May-02 06:58N 36°50' E 030°36'0 0.0
2018-May-02 06:28N 36°50' E 030°36'0 0.0
2018-May-02 05:58N 36°50' E 030°36'2 4.4
2018-May-02 05:31N 36°48' E 030°36'1 1.5
2018-May-02 04:59N 36°48' E 030°35'0 0.0
2018-May-02 04:29N 36°48' E 030°35'0 0.0
2018-May-02 03:59N 36°48' E 030°35'0 0.0
2018-May-02 03:29N 36°48' E 030°35'0 0.0
2018-May-02 02:59N 36°48' E 030°35'0 0.0
2018-May-02 02:29N 36°48' E 030°35'0 0.0
2018-May-02 01:59N 36°48' E 030°35'0 0.0
2018-May-02 01:29N 36°48' E 030°35'0 0.0
2018-May-02 00:59N 36°48' E 030°35'0 0.0
2018-May-02 00:29N 36°48' E 030°35'0 0.0
2018-May-01 23:59N 36°48' E 030°35'0 0.0
2018-May-01 23:29N 36°48' E 030°35'0 0.0
2018-May-01 22:59N 36°48' E 030°35'0 0.0
2018-May-01 22:29N 36°48' E 030°35'0 0.0
2018-May-01 21:59N 36°48' E 030°35'0 0.0
2018-May-01 21:29N 36°48' E 030°35'0 0.0
2018-May-01 20:59N 36°48' E 030°35'0 0.0
2018-May-01 20:29N 36°48' E 030°35'0 0.0
2018-May-01 19:59N 36°48' E 030°35'0 0.0
2018-May-01 19:29N 36°48' E 030°35'0 0.0
2018-May-01 18:56N 36°48' E 030°35'0 0.0
2018-May-01 18:29N 36°48' E 030°35'0 0.0
2018-May-01 17:59N 36°48' E 030°35'  
Track history (hours):
 
Tides and Currents Weather Stations Pressure Air Temp Water Temp Dewpoint Dewpoint Depression Visibility Wind Speed Wind Dir Waves Ship Positions

Selim Kaptan-1

Last reported at 2018-May-10 13:09 UTC. Time now 2018-Jun-24 15:10 UTC.
Position N 36°48' E 030°35'.
Warning: this ship's position is 45 days out of date.

Length 18 m.

Type: Pleasure craft. MMSI: 271041648.

Date/timePositionNaut miles runAvg speedWind from/ knotsBaromVisibWave heightAir tempDewpointWater temp
2018-May-10 13:09N 36°48' E 030°35'0 0.0
2018-May-10 13:00N 36°48' E 030°35'0 0.0
2018-May-10 12:30N 36°48' E 030°35'0 0.0
2018-May-10 12:00N 36°48' E 030°35'0 0.0
2018-May-10 11:30N 36°48' E 030°35'0 0.0
2018-May-10 11:00N 36°48' E 030°35'0 0.0
2018-May-10 10:30N 36°48' E 030°35'0 0.0
2018-May-10 10:00N 36°48' E 030°35'0 0.0
2018-May-10 09:30N 36°48' E 030°35'0 0.0
2018-May-10 09:00N 36°48' E 030°35'0 0.0
2018-May-10 08:30N 36°48' E 030°35'0 0.0
2018-May-10 08:00N 36°48' E 030°35'0 0.0
2018-May-10 07:30N 36°48' E 030°35'0 0.0
2018-May-10 07:00N 36°48' E 030°35'0 0.0
2018-May-10 06:30N 36°48' E 030°35'0 0.0
2018-May-10 06:00N 36°48' E 030°35'0 0.0
2018-May-10 05:30N 36°48' E 030°35'0 0.0
2018-May-10 04:57N 36°48' E 030°35'0 0.0
2018-May-10 04:30N 36°48' E 030°35'0 0.0
2018-May-10 04:00N 36°48' E 030°35'0 0.0
2018-May-10 03:30N 36°48' E 030°35'0 0.0
2018-May-10 03:00N 36°48' E 030°35'0 0.0
2018-May-10 02:30N 36°48' E 030°35'0 0.0
2018-May-10 02:00N 36°48' E 030°35'0 0.0
2018-May-10 01:30N 36°48' E 030°35'0 0.0
2018-May-10 01:00N 36°48' E 030°35'0 0.0
2018-May-10 00:30N 36°48' E 030°35'0 0.0
2018-May-10 00:00N 36°48' E 030°35'0 0.0
2018-May-09 23:30N 36°48' E 030°35'0 0.0
2018-May-09 23:00N 36°48' E 030°35'0 0.0
2018-May-09 22:30N 36°48' E 030°35'0 0.0
2018-May-09 22:00N 36°48' E 030°35'0 0.0
2018-May-09 21:30N 36°48' E 030°35'0 0.0
2018-May-09 21:00N 36°48' E 030°35'0 0.0
2018-May-09 20:30N 36°48' E 030°35'0 0.0
2018-May-09 16:45N 36°48' E 030°35'0 0.0
2018-May-09 16:30N 36°48' E 030°35'0 0.0
2018-May-09 16:00N 36°48' E 030°35'0 0.0
2018-May-09 15:30N 36°48' E 030°35'0 0.0
2018-May-09 15:00N 36°48' E 030°35'0 0.0
2018-May-09 14:30N 36°48' E 030°35'0 0.0
2018-May-09 14:00N 36°48' E 030°35'0 0.0
2018-May-09 13:30N 36°48' E 030°35'0 0.0
2018-May-09 13:00N 36°48' E 030°35'0 0.0
2018-May-09 12:30N 36°48' E 030°35'0 0.0
2018-May-09 12:00N 36°48' E 030°35'0 0.0
2018-May-09 11:30N 36°48' E 030°35'0 0.0
2018-May-09 11:00N 36°48' E 030°35'0 0.0
2018-May-09 10:30N 36°48' E 030°35'0 0.0
2018-May-09 10:00N 36°48' E 030°35'0 0.0
2018-May-09 09:30N 36°48' E 030°35'0 0.0
2018-May-09 09:00N 36°48' E 030°35'0 0.0
2018-May-09 08:30N 36°48' E 030°35'0 0.0
2018-May-09 08:00N 36°48' E 030°35'0 0.0
2018-May-09 07:30N 36°48' E 030°35'0 0.0
2018-May-09 07:00N 36°48' E 030°35'  
2018-May-02 17:18N 36°48' E 030°35'0 0.0
2018-May-02 16:57N 36°48' E 030°35'0 0.0
2018-May-02 16:27N 36°48' E 030°35'0 0.9
2018-May-02 16:01N 36°48' E 030°35'2 3.2
2018-May-02 15:28N 36°50' E 030°36'0 0.0
2018-May-02 14:58N 36°50' E 030°36'1 2.6
2018-May-02 14:31N 36°49' E 030°36'1 1.8
2018-May-02 13:59N 36°48' E 030°35'0 0.0
2018-May-02 13:29N 36°48' E 030°35'0 0.0
2018-May-02 12:56N 36°48' E 030°35'0 0.0
2018-May-02 12:29N 36°48' E 030°35'0 0.0
2018-May-02 11:59N 36°48' E 030°35'0 0.0
2018-May-02 11:29N 36°48' E 030°35'0 0.0
2018-May-02 10:59N 36°48' E 030°35'0 0.0
2018-May-02 10:29N 36°48' E 030°35'1 2.6
2018-May-02 10:00N 36°49' E 030°37'4 7.7
2018-May-02 09:30N 36°50' E 030°41'4 7.6
2018-May-02 08:59N 36°51' E 030°46'0 0.4
2018-May-02 08:09N 36°51' E 030°46'1 8.0
2018-May-02 07:59N 36°51' E 030°45'4 7.8
2018-May-02 07:30N 36°51' E 030°40'3 5.8
2018-May-02 06:58N 36°50' E 030°36'0 0.0
2018-May-02 06:28N 36°50' E 030°36'0 0.0
2018-May-02 05:58N 36°50' E 030°36'2 4.4
2018-May-02 05:31N 36°48' E 030°36'1 1.5
2018-May-02 04:59N 36°48' E 030°35'0 0.0
2018-May-02 04:29N 36°48' E 030°35'0 0.0
2018-May-02 03:59N 36°48' E 030°35'0 0.0
2018-May-02 03:29N 36°48' E 030°35'0 0.0
2018-May-02 02:59N 36°48' E 030°35'0 0.0
2018-May-02 02:29N 36°48' E 030°35'0 0.0
2018-May-02 01:59N 36°48' E 030°35'0 0.0
2018-May-02 01:29N 36°48' E 030°35'0 0.0
2018-May-02 00:59N 36°48' E 030°35'0 0.0
2018-May-02 00:29N 36°48' E 030°35'0 0.0
2018-May-01 23:59N 36°48' E 030°35'0 0.0
2018-May-01 23:29N 36°48' E 030°35'0 0.0
2018-May-01 22:59N 36°48' E 030°35'0 0.0
2018-May-01 22:29N 36°48' E 030°35'0 0.0
2018-May-01 21:59N 36°48' E 030°35'0 0.0
2018-May-01 21:29N 36°48' E 030°35'0 0.0
2018-May-01 20:59N 36°48' E 030°35'0 0.0
2018-May-01 20:29N 36°48' E 030°35'0 0.0
2018-May-01 19:59N 36°48' E 030°35'0 0.0
2018-May-01 19:29N 36°48' E 030°35'0 0.0
2018-May-01 18:56N 36°48' E 030°35'0 0.0
2018-May-01 18:29N 36°48' E 030°35'0 0.0
2018-May-01 17:59N 36°48' E 030°35'  

Dump ship's entire track history